sensor_id;sensor_type;location;lat;lon;timestamp;pressure;altitude;pressure_sealevel;temperature;humidity
60611;BME280;46439;51.164;13.572;2024-02-04T00:00:37;100507.89;;;10.20;100.00
60611;BME280;46439;51.164;13.572;2024-02-04T00:03:06;100512.13;;;10.18;100.00
60611;BME280;46439;51.164;13.572;2024-02-04T00:05:34;100515.49;;;10.19;100.00
60611;BME280;46439;51.164;13.572;2024-02-04T00:08:02;100509.60;;;10.24;100.00
60611;BME280;46439;51.164;13.572;2024-02-04T00:10:30;100505.42;;;10.26;100.00
60611;BME280;46439;51.164;13.572;2024-02-04T00:12:58;100504.52;;;10.28;100.00
60611;BME280;46439;51.164;13.572;2024-02-04T00:15:27;100495.86;;;10.29;100.00
60611;BME280;46439;51.164;13.572;2024-02-04T00:17:55;100493.27;;;10.30;100.00
60611;BME280;46439;51.164;13.572;2024-02-04T00:20:23;100487.98;;;10.29;100.00
60611;BME280;46439;51.164;13.572;2024-02-04T00:22:53;100490.16;;;10.31;100.00
60611;BME280;46439;51.164;13.572;2024-02-04T00:25:22;100497.46;;;10.23;100.00
60611;BME280;46439;51.164;13.572;2024-02-04T00:27:51;100498.87;;;10.22;100.00
60611;BME280;46439;51.164;13.572;2024-02-04T00:30:19;100493.88;;;10.21;100.00
60611;BME280;46439;51.164;13.572;2024-02-04T00:32:48;100495.52;;;10.24;100.00
60611;BME280;46439;51.164;13.572;2024-02-04T00:35:16;100500.60;;;10.24;100.00
60611;BME280;46439;51.164;13.572;2024-02-04T00:37:44;100499.16;;;10.22;100.00
60611;BME280;46439;51.164;13.572;2024-02-04T00:40:14;100508.24;;;10.22;100.00
60611;BME280;46439;51.164;13.572;2024-02-04T00:42:42;100508.62;;;10.19;100.00
60611;BME280;46439;51.164;13.572;2024-02-04T00:45:11;100505.14;;;10.18;100.00
60611;BME280;46439;51.164;13.572;2024-02-04T00:47:39;100513.30;;;10.19;100.00
60611;BME280;46439;51.164;13.572;2024-02-04T00:50:09;100510.80;;;10.19;100.00
60611;BME280;46439;51.164;13.572;2024-02-04T00:52:38;100508.41;;;10.18;100.00
60611;BME280;46439;51.164;13.572;2024-02-04T00:55:07;100491.70;;;10.18;100.00
60611;BME280;46439;51.164;13.572;2024-02-04T00:57:36;100483.85;;;10.19;100.00
60611;BME280;46439;51.164;13.572;2024-02-04T01:00:05;100485.31;;;10.20;100.00
60611;BME280;46439;51.164;13.572;2024-02-04T01:02:34;100489.48;;;10.20;100.00
60611;BME280;46439;51.164;13.572;2024-02-04T01:05:02;100495.26;;;10.20;100.00
60611;BME280;46439;51.164;13.572;2024-02-04T01:07:31;100490.98;;;10.19;100.00
60611;BME280;46439;51.164;13.572;2024-02-04T01:09:59;100481.15;;;10.19;100.00
60611;BME280;46439;51.164;13.572;2024-02-04T01:12:27;100487.86;;;10.17;100.00
60611;BME280;46439;51.164;13.572;2024-02-04T01:14:55;100493.72;;;10.16;100.00
60611;BME280;46439;51.164;13.572;2024-02-04T01:17:23;100506.42;;;10.16;100.00
60611;BME280;46439;51.164;13.572;2024-02-04T01:19:51;100504.89;;;10.15;100.00
60611;BME280;46439;51.164;13.572;2024-02-04T01:22:19;100506.62;;;10.13;100.00
60611;BME280;46439;51.164;13.572;2024-02-04T01:24:53;100495.84;;;10.11;100.00
60611;BME280;46439;51.164;13.572;2024-02-04T01:27:21;100492.86;;;10.12;100.00
60611;BME280;46439;51.164;13.572;2024-02-04T01:29:49;100483.55;;;10.13;100.00
60611;BME280;46439;51.164;13.572;2024-02-04T01:32:17;100488.79;;;10.13;100.00
60611;BME280;46439;51.164;13.572;2024-02-04T01:34:45;100491.62;;;10.12;100.00
60611;BME280;46439;51.164;13.572;2024-02-04T01:37:13;100492.19;;;10.10;100.00
60611;BME280;46439;51.164;13.572;2024-02-04T01:39:41;100492.30;;;10.00;100.00
60611;BME280;46439;51.164;13.572;2024-02-04T01:42:09;100492.29;;;10.02;100.00
60611;BME280;46439;51.164;13.572;2024-02-04T01:44:38;100488.70;;;10.00;100.00
60611;BME280;46439;51.164;13.572;2024-02-04T01:47:06;100491.33;;;9.99;100.00
60611;BME280;46439;51.164;13.572;2024-02-04T01:49:35;100497.42;;;9.96;100.00
60611;BME280;46439;51.164;13.572;2024-02-04T01:52:04;100501.45;;;9.98;100.00
60611;BME280;46439;51.164;13.572;2024-02-04T01:54:33;100506.08;;;9.97;100.00
60611;BME280;46439;51.164;13.572;2024-02-04T01:57:03;100500.67;;;10.04;100.00
60611;BME280;46439;51.164;13.572;2024-02-04T01:59:32;100498.79;;;10.04;100.00
60611;BME280;46439;51.164;13.572;2024-02-04T02:02:01;100498.64;;;10.05;100.00
60611;BME280;46439;51.164;13.572;2024-02-04T02:04:29;100494.05;;;10.06;100.00
60611;BME280;46439;51.164;13.572;2024-02-04T02:06:57;100485.02;;;10.08;100.00
60611;BME280;46439;51.164;13.572;2024-02-04T02:09:27;100482.89;;;10.06;100.00
60611;BME280;46439;51.164;13.572;2024-02-04T02:12:01;100479.00;;;10.05;100.00
60611;BME280;46439;51.164;13.572;2024-02-04T02:14:33;100466.06;;;10.04;100.00
60611;BME280;46439;51.164;13.572;2024-02-04T02:17:02;100466.94;;;10.02;100.00
60611;BME280;46439;51.164;13.572;2024-02-04T02:19:43;100469.41;;;10.01;100.00
60611;BME280;46439;51.164;13.572;2024-02-04T02:22:23;100468.35;;;10.02;100.00
60611;BME280;46439;51.164;13.572;2024-02-04T02:24:53;100473.29;;;10.00;100.00
60611;BME280;46439;51.164;13.572;2024-02-04T02:27:23;100473.88;;;10.01;100.00
60611;BME280;46439;51.164;13.572;2024-02-04T02:29:52;100469.66;;;9.98;100.00
60611;BME280;46439;51.164;13.572;2024-02-04T02:32:20;100472.27;;;9.91;100.00
60611;BME280;46439;51.164;13.572;2024-02-04T02:34:49;100475.58;;;9.90;100.00
60611;BME280;46439;51.164;13.572;2024-02-04T02:37:25;100468.95;;;9.92;100.00
60611;BME280;46439;51.164;13.572;2024-02-04T02:39:58;100479.39;;;9.91;100.00
60611;BME280;46439;51.164;13.572;2024-02-04T02:42:28;100481.91;;;9.90;100.00
60611;BME280;46439;51.164;13.572;2024-02-04T02:44:57;100479.25;;;9.94;100.00
60611;BME280;46439;51.164;13.572;2024-02-04T02:47:26;100471.05;;;9.97;100.00
60611;BME280;46439;51.164;13.572;2024-02-04T02:49:56;100470.46;;;10.01;100.00
60611;BME280;46439;51.164;13.572;2024-02-04T02:52:25;100467.29;;;10.07;100.00
60611;BME280;46439;51.164;13.572;2024-02-04T02:54:53;100465.27;;;10.08;100.00
60611;BME280;46439;51.164;13.572;2024-02-04T02:57:21;100472.05;;;10.11;100.00
60611;BME280;46439;51.164;13.572;2024-02-04T02:59:49;100465.02;;;10.15;100.00
60611;BME280;46439;51.164;13.572;2024-02-04T03:02:17;100468.34;;;10.17;100.00
60611;BME280;46439;51.164;13.572;2024-02-04T03:04:45;100468.93;;;10.17;100.00
60611;BME280;46439;51.164;13.572;2024-02-04T03:07:13;100470.36;;;10.17;100.00
60611;BME280;46439;51.164;13.572;2024-02-04T03:09:41;100466.41;;;10.16;100.00
60611;BME280;46439;51.164;13.572;2024-02-04T03:12:09;100463.27;;;10.13;100.00
60611;BME280;46439;51.164;13.572;2024-02-04T03:14:37;100469.36;;;10.15;100.00
60611;BME280;46439;51.164;13.572;2024-02-04T03:17:06;100477.96;;;10.12;100.00
60611;BME280;46439;51.164;13.572;2024-02-04T03:19:34;100476.13;;;10.14;100.00
60611;BME280;46439;51.164;13.572;2024-02-04T03:22:02;100481.38;;;10.07;100.00
60611;BME280;46439;51.164;13.572;2024-02-04T03:24:30;100479.91;;;9.98;100.00
60611;BME280;46439;51.164;13.572;2024-02-04T03:26:58;100467.34;;;9.95;100.00
60611;BME280;46439;51.164;13.572;2024-02-04T03:29:26;100469.61;;;10.00;100.00
60611;BME280;46439;51.164;13.572;2024-02-04T03:31:55;100465.44;;;10.01;100.00
60611;BME280;46439;51.164;13.572;2024-02-04T03:34:23;100474.61;;;9.99;100.00
60611;BME280;46439;51.164;13.572;2024-02-04T03:36:51;100480.78;;;10.02;100.00
60611;BME280;46439;51.164;13.572;2024-02-04T03:39:19;100480.73;;;10.03;100.00
60611;BME280;46439;51.164;13.572;2024-02-04T03:41:47;100484.50;;;10.03;100.00
60611;BME280;46439;51.164;13.572;2024-02-04T03:44:15;100485.04;;;10.01;100.00
60611;BME280;46439;51.164;13.572;2024-02-04T03:46:47;100488.96;;;9.98;100.00
60611;BME280;46439;51.164;13.572;2024-02-04T03:49:16;100490.03;;;9.96;100.00
60611;BME280;46439;51.164;13.572;2024-02-04T03:51:44;100483.14;;;9.93;100.00
60611;BME280;46439;51.164;13.572;2024-02-04T03:54:12;100496.81;;;9.95;100.00
60611;BME280;46439;51.164;13.572;2024-02-04T03:56:41;100493.20;;;9.97;100.00
60611;BME280;46439;51.164;13.572;2024-02-04T03:59:10;100479.10;;;9.99;100.00
60611;BME280;46439;51.164;13.572;2024-02-04T04:01:39;100479.97;;;10.01;100.00
60611;BME280;46439;51.164;13.572;2024-02-04T04:04:07;100472.09;;;10.03;100.00
60611;BME280;46439;51.164;13.572;2024-02-04T04:06:35;100458.70;;;10.00;100.00
60611;BME280;46439;51.164;13.572;2024-02-04T04:09:03;100458.42;;;9.91;100.00
60611;BME280;46439;51.164;13.572;2024-02-04T04:11:32;100451.70;;;9.79;100.00
60611;BME280;46439;51.164;13.572;2024-02-04T04:14:00;100456.69;;;9.85;100.00
60611;BME280;46439;51.164;13.572;2024-02-04T04:16:28;100457.80;;;9.88;100.00
60611;BME280;46439;51.164;13.572;2024-02-04T04:18:56;100450.34;;;9.92;100.00
60611;BME280;46439;51.164;13.572;2024-02-04T04:21:26;100446.17;;;9.96;100.00
60611;BME280;46439;51.164;13.572;2024-02-04T04:23:54;100442.30;;;9.98;100.00
60611;BME280;46439;51.164;13.572;2024-02-04T04:26:22;100440.39;;;10.00;100.00
60611;BME280;46439;51.164;13.572;2024-02-04T04:28:50;100439.02;;;10.01;100.00
60611;BME280;46439;51.164;13.572;2024-02-04T04:31:18;100448.27;;;9.98;100.00
60611;BME280;46439;51.164;13.572;2024-02-04T04:33:46;100443.26;;;10.00;100.00
60611;BME280;46439;51.164;13.572;2024-02-04T04:36:14;100447.00;;;10.00;100.00
60611;BME280;46439;51.164;13.572;2024-02-04T04:38:42;100450.69;;;10.03;100.00
60611;BME280;46439;51.164;13.572;2024-02-04T04:41:11;100452.73;;;10.00;100.00
60611;BME280;46439;51.164;13.572;2024-02-04T04:43:39;100451.98;;;9.99;100.00
60611;BME280;46439;51.164;13.572;2024-02-04T04:46:07;100445.83;;;9.96;100.00
60611;BME280;46439;51.164;13.572;2024-02-04T04:48:35;100444.68;;;9.93;100.00
60611;BME280;46439;51.164;13.572;2024-02-04T04:51:03;100447.56;;;9.88;100.00
60611;BME280;46439;51.164;13.572;2024-02-04T04:53:31;100442.90;;;9.88;100.00
60611;BME280;46439;51.164;13.572;2024-02-04T04:55:59;100442.77;;;9.89;100.00
60611;BME280;46439;51.164;13.572;2024-02-04T04:58:27;100438.29;;;9.88;100.00
60611;BME280;46439;51.164;13.572;2024-02-04T05:00:55;100422.24;;;9.88;100.00
60611;BME280;46439;51.164;13.572;2024-02-04T05:03:23;100414.50;;;9.91;100.00
60611;BME280;46439;51.164;13.572;2024-02-04T05:05:52;100412.70;;;9.95;100.00
60611;BME280;46439;51.164;13.572;2024-02-04T05:08:20;100416.10;;;9.96;100.00
60611;BME280;46439;51.164;13.572;2024-02-04T05:10:48;100414.50;;;9.98;100.00
60611;BME280;46439;51.164;13.572;2024-02-04T05:13:16;100418.07;;;9.98;100.00
60611;BME280;46439;51.164;13.572;2024-02-04T05:15:44;100410.44;;;9.97;100.00
60611;BME280;46439;51.164;13.572;2024-02-04T05:18:12;100414.65;;;9.95;100.00
60611;BME280;46439;51.164;13.572;2024-02-04T05:20:40;100407.22;;;9.92;100.00
60611;BME280;46439;51.164;13.572;2024-02-04T05:23:08;100402.29;;;9.89;100.00
60611;BME280;46439;51.164;13.572;2024-02-04T05:25:36;100395.23;;;9.88;100.00
60611;BME280;46439;51.164;13.572;2024-02-04T05:28:05;100399.41;;;9.83;100.00
60611;BME280;46439;51.164;13.572;2024-02-04T05:30:34;100398.16;;;9.74;100.00
60611;BME280;46439;51.164;13.572;2024-02-04T05:33:02;100396.06;;;9.70;100.00
60611;BME280;46439;51.164;13.572;2024-02-04T05:35:30;100387.23;;;9.67;100.00
60611;BME280;46439;51.164;13.572;2024-02-04T05:37:58;100385.63;;;9.69;100.00
60611;BME280;46439;51.164;13.572;2024-02-04T05:40:26;100383.15;;;9.63;100.00
60611;BME280;46439;51.164;13.572;2024-02-04T05:42:54;100377.48;;;9.68;100.00
60611;BME280;46439;51.164;13.572;2024-02-04T05:45:22;100370.73;;;9.67;100.00
60611;BME280;46439;51.164;13.572;2024-02-04T05:47:50;100372.00;;;9.72;100.00
60611;BME280;46439;51.164;13.572;2024-02-04T05:50:19;100374.08;;;9.69;100.00
60611;BME280;46439;51.164;13.572;2024-02-04T05:52:47;100377.99;;;9.69;100.00
60611;BME280;46439;51.164;13.572;2024-02-04T05:55:15;100378.44;;;9.73;100.00
60611;BME280;46439;51.164;13.572;2024-02-04T05:57:43;100373.26;;;9.76;100.00
60611;BME280;46439;51.164;13.572;2024-02-04T06:00:14;100367.13;;;9.77;100.00
60611;BME280;46439;51.164;13.572;2024-02-04T06:02:42;100359.98;;;9.78;100.00
60611;BME280;46439;51.164;13.572;2024-02-04T06:05:14;100370.72;;;9.78;100.00
60611;BME280;46439;51.164;13.572;2024-02-04T06:07:43;100366.00;;;9.80;100.00
60611;BME280;46439;51.164;13.572;2024-02-04T06:10:12;100360.20;;;9.83;100.00
60611;BME280;46439;51.164;13.572;2024-02-04T06:12:41;100361.04;;;9.84;100.00
60611;BME280;46439;51.164;13.572;2024-02-04T06:15:14;100367.16;;;9.84;100.00
60611;BME280;46439;51.164;13.572;2024-02-04T06:17:43;100366.08;;;9.85;100.00
60611;BME280;46439;51.164;13.572;2024-02-04T06:20:12;100360.05;;;9.86;100.00
60611;BME280;46439;51.164;13.572;2024-02-04T06:22:40;100358.67;;;9.86;100.00
60611;BME280;46439;51.164;13.572;2024-02-04T06:25:09;100363.36;;;9.86;100.00
60611;BME280;46439;51.164;13.572;2024-02-04T06:27:37;100358.66;;;9.84;100.00
60611;BME280;46439;51.164;13.572;2024-02-04T06:30:08;100351.02;;;9.83;100.00
60611;BME280;46439;51.164;13.572;2024-02-04T06:32:37;100340.29;;;9.81;100.00
60611;BME280;46439;51.164;13.572;2024-02-04T06:35:08;100329.23;;;9.82;100.00
60611;BME280;46439;51.164;13.572;2024-02-04T06:37:36;100326.77;;;9.86;100.00
60611;BME280;46439;51.164;13.572;2024-02-04T06:40:06;100330.30;;;9.89;100.00
60611;BME280;46439;51.164;13.572;2024-02-04T06:42:34;100333.22;;;9.90;100.00
60611;BME280;46439;51.164;13.572;2024-02-04T06:45:02;100334.35;;;9.94;100.00
60611;BME280;46439;51.164;13.572;2024-02-04T06:47:30;100332.54;;;9.98;100.00
60611;BME280;46439;51.164;13.572;2024-02-04T06:49:58;100329.23;;;9.98;100.00
60611;BME280;46439;51.164;13.572;2024-02-04T06:52:26;100349.45;;;9.97;100.00
60611;BME280;46439;51.164;13.572;2024-02-04T06:55:01;100337.15;;;9.95;100.00
60611;BME280;46439;51.164;13.572;2024-02-04T06:57:29;100344.46;;;9.95;100.00
60611;BME280;46439;51.164;13.572;2024-02-04T06:59:57;100353.03;;;9.95;100.00
60611;BME280;46439;51.164;13.572;2024-02-04T07:02:25;100343.42;;;9.95;100.00
60611;BME280;46439;51.164;13.572;2024-02-04T07:04:53;100331.66;;;9.99;100.00
60611;BME280;46439;51.164;13.572;2024-02-04T07:07:21;100323.02;;;10.06;100.00
60611;BME280;46439;51.164;13.572;2024-02-04T07:09:50;100327.59;;;10.00;100.00
60611;BME280;46439;51.164;13.572;2024-02-04T07:12:18;100328.56;;;10.01;100.00
60611;BME280;46439;51.164;13.572;2024-02-04T07:14:46;100330.27;;;10.06;100.00
60611;BME280;46439;51.164;13.572;2024-02-04T07:17:14;100330.69;;;10.07;100.00
60611;BME280;46439;51.164;13.572;2024-02-04T07:19:42;100334.84;;;10.06;100.00
60611;BME280;46439;51.164;13.572;2024-02-04T07:22:10;100334.81;;;10.08;100.00
60611;BME280;46439;51.164;13.572;2024-02-04T07:24:38;100326.38;;;10.08;100.00
60611;BME280;46439;51.164;13.572;2024-02-04T07:27:06;100324.83;;;10.09;100.00
60611;BME280;46439;51.164;13.572;2024-02-04T07:29:34;100324.63;;;10.08;100.00
60611;BME280;46439;51.164;13.572;2024-02-04T07:32:03;100320.48;;;10.08;100.00
60611;BME280;46439;51.164;13.572;2024-02-04T07:34:31;100323.85;;;10.10;100.00
60611;BME280;46439;51.164;13.572;2024-02-04T07:36:59;100319.54;;;10.10;100.00
60611;BME280;46439;51.164;13.572;2024-02-04T07:39:27;100318.60;;;10.09;100.00
60611;BME280;46439;51.164;13.572;2024-02-04T07:41:55;100312.96;;;10.09;100.00
60611;BME280;46439;51.164;13.572;2024-02-04T07:44:27;100314.73;;;10.11;100.00
60611;BME280;46439;51.164;13.572;2024-02-04T07:46:56;100307.20;;;10.08;100.00
60611;BME280;46439;51.164;13.572;2024-02-04T07:49:24;100304.63;;;10.06;100.00
60611;BME280;46439;51.164;13.572;2024-02-04T07:51:52;100307.40;;;10.09;100.00
60611;BME280;46439;51.164;13.572;2024-02-04T07:54:20;100305.61;;;10.11;100.00
60611;BME280;46439;51.164;13.572;2024-02-04T07:56:48;100305.70;;;10.13;100.00
60611;BME280;46439;51.164;13.572;2024-02-04T07:59:16;100312.77;;;10.19;100.00
60611;BME280;46439;51.164;13.572;2024-02-04T08:01:44;100312.88;;;10.27;100.00
60611;BME280;46439;51.164;13.572;2024-02-04T08:04:12;100307.45;;;10.29;100.00
60611;BME280;46439;51.164;13.572;2024-02-04T08:06:40;100310.73;;;10.32;100.00
60611;BME280;46439;51.164;13.572;2024-02-04T08:09:09;100313.20;;;10.30;100.00
60611;BME280;46439;51.164;13.572;2024-02-04T08:11:37;100315.89;;;10.36;100.00
60611;BME280;46439;51.164;13.572;2024-02-04T08:14:05;100316.69;;;10.38;100.00
60611;BME280;46439;51.164;13.572;2024-02-04T08:16:33;100309.13;;;10.41;100.00
60611;BME280;46439;51.164;13.572;2024-02-04T08:19:01;100304.48;;;10.46;100.00
60611;BME280;46439;51.164;13.572;2024-02-04T08:21:29;100307.41;;;10.49;100.00
60611;BME280;46439;51.164;13.572;2024-02-04T08:23:59;100301.02;;;10.58;100.00
60611;BME280;46439;51.164;13.572;2024-02-04T08:26:27;100303.83;;;10.62;100.00
60611;BME280;46439;51.164;13.572;2024-02-04T08:28:55;100300.08;;;10.66;100.00
60611;BME280;46439;51.164;13.572;2024-02-04T08:31:23;100300.78;;;10.68;100.00
60611;BME280;46439;51.164;13.572;2024-02-04T08:33:51;100303.58;;;10.67;100.00
60611;BME280;46439;51.164;13.572;2024-02-04T08:36:20;100304.98;;;10.71;100.00
60611;BME280;46439;51.164;13.572;2024-02-04T08:38:48;100311.44;;;10.72;100.00
60611;BME280;46439;51.164;13.572;2024-02-04T08:41:16;100310.90;;;10.69;100.00
60611;BME280;46439;51.164;13.572;2024-02-04T08:43:45;100307.98;;;10.70;100.00
60611;BME280;46439;51.164;13.572;2024-02-04T08:46:13;100311.23;;;10.70;100.00
60611;BME280;46439;51.164;13.572;2024-02-04T08:48:42;100312.42;;;10.70;100.00
60611;BME280;46439;51.164;13.572;2024-02-04T08:51:13;100314.70;;;10.74;100.00
60611;BME280;46439;51.164;13.572;2024-02-04T08:53:43;100313.71;;;10.81;100.00
60611;BME280;46439;51.164;13.572;2024-02-04T08:56:12;100317.28;;;10.85;100.00
60611;BME280;46439;51.164;13.572;2024-02-04T08:58:40;100312.21;;;10.91;100.00
60611;BME280;46439;51.164;13.572;2024-02-04T09:01:08;100309.31;;;10.89;100.00
60611;BME280;46439;51.164;13.572;2024-02-04T09:03:37;100316.88;;;10.88;100.00
60611;BME280;46439;51.164;13.572;2024-02-04T09:06:06;100321.05;;;10.91;100.00
60611;BME280;46439;51.164;13.572;2024-02-04T09:08:34;100320.36;;;10.90;100.00
60611;BME280;46439;51.164;13.572;2024-02-04T09:11:03;100319.34;;;10.87;100.00
60611;BME280;46439;51.164;13.572;2024-02-04T09:13:31;100319.56;;;10.82;100.00
60611;BME280;46439;51.164;13.572;2024-02-04T09:15:59;100326.27;;;10.78;100.00
60611;BME280;46439;51.164;13.572;2024-02-04T09:18:27;100320.91;;;10.78;100.00
60611;BME280;46439;51.164;13.572;2024-02-04T09:20:56;100297.96;;;10.81;100.00
60611;BME280;46439;51.164;13.572;2024-02-04T09:23:24;100289.67;;;10.82;100.00
60611;BME280;46439;51.164;13.572;2024-02-04T09:25:52;100304.51;;;10.83;100.00
60611;BME280;46439;51.164;13.572;2024-02-04T09:28:20;100312.33;;;10.86;100.00
60611;BME280;46439;51.164;13.572;2024-02-04T09:30:48;100299.83;;;10.86;100.00
60611;BME280;46439;51.164;13.572;2024-02-04T09:33:16;100290.76;;;10.85;100.00
60611;BME280;46439;51.164;13.572;2024-02-04T09:35:44;100298.31;;;10.90;100.00
60611;BME280;46439;51.164;13.572;2024-02-04T09:38:14;100300.80;;;10.91;100.00
60611;BME280;46439;51.164;13.572;2024-02-04T09:40:43;100313.42;;;10.92;100.00
60611;BME280;46439;51.164;13.572;2024-02-04T09:43:12;100318.96;;;10.92;100.00
60611;BME280;46439;51.164;13.572;2024-02-04T09:45:40;100313.25;;;10.93;100.00
60611;BME280;46439;51.164;13.572;2024-02-04T09:48:09;100304.33;;;10.98;100.00
60611;BME280;46439;51.164;13.572;2024-02-04T09:50:38;100308.59;;;10.96;100.00
60611;BME280;46439;51.164;13.572;2024-02-04T09:53:09;100299.04;;;10.95;100.00
60611;BME280;46439;51.164;13.572;2024-02-04T09:55:39;100299.39;;;10.93;100.00
60611;BME280;46439;51.164;13.572;2024-02-04T09:58:08;100302.45;;;10.95;100.00
60611;BME280;46439;51.164;13.572;2024-02-04T10:00:36;100307.45;;;10.95;100.00
60611;BME280;46439;51.164;13.572;2024-02-04T10:03:06;100299.45;;;10.93;100.00
60611;BME280;46439;51.164;13.572;2024-02-04T10:05:35;100298.94;;;10.92;100.00
60611;BME280;46439;51.164;13.572;2024-02-04T10:08:03;100295.09;;;10.92;100.00
60611;BME280;46439;51.164;13.572;2024-02-04T10:10:32;100293.17;;;10.91;100.00
60611;BME280;46439;51.164;13.572;2024-02-04T10:13:00;100291.55;;;10.91;100.00
60611;BME280;46439;51.164;13.572;2024-02-04T10:15:33;100284.19;;;10.92;100.00
60611;BME280;46439;51.164;13.572;2024-02-04T10:18:04;100283.17;;;10.92;100.00
60611;BME280;46439;51.164;13.572;2024-02-04T10:20:33;100271.38;;;10.90;100.00
60611;BME280;46439;51.164;13.572;2024-02-04T10:23:01;100276.04;;;10.85;100.00
60611;BME280;46439;51.164;13.572;2024-02-04T10:25:29;100276.48;;;10.81;100.00
60611;BME280;46439;51.164;13.572;2024-02-04T10:27:58;100271.70;;;10.77;100.00
60611;BME280;46439;51.164;13.572;2024-02-04T10:30:27;100269.75;;;10.75;100.00
60611;BME280;46439;51.164;13.572;2024-02-04T10:32:55;100269.42;;;10.78;100.00
60611;BME280;46439;51.164;13.572;2024-02-04T10:35:23;100260.90;;;10.72;100.00
60611;BME280;46439;51.164;13.572;2024-02-04T10:37:52;100258.86;;;10.68;100.00
60611;BME280;46439;51.164;13.572;2024-02-04T10:40:20;100256.48;;;10.63;100.00
60611;BME280;46439;51.164;13.572;2024-02-04T10:42:50;100253.04;;;10.62;100.00
60611;BME280;46439;51.164;13.572;2024-02-04T10:45:19;100248.52;;;10.59;100.00
60611;BME280;46439;51.164;13.572;2024-02-04T10:47:55;100243.03;;;10.68;100.00
60611;BME280;46439;51.164;13.572;2024-02-04T10:50:25;100239.41;;;10.71;100.00
60611;BME280;46439;51.164;13.572;2024-02-04T10:52:56;100235.75;;;10.73;100.00
60611;BME280;46439;51.164;13.572;2024-02-04T10:55:29;100227.79;;;10.75;100.00
60611;BME280;46439;51.164;13.572;2024-02-04T10:57:58;100222.27;;;10.79;100.00
60611;BME280;46439;51.164;13.572;2024-02-04T11:00:27;100223.48;;;10.85;100.00
60611;BME280;46439;51.164;13.572;2024-02-04T11:02:57;100216.02;;;10.87;100.00
60611;BME280;46439;51.164;13.572;2024-02-04T11:05:27;100213.99;;;10.91;100.00
60611;BME280;46439;51.164;13.572;2024-02-04T11:07:57;100207.94;;;10.95;100.00
60611;BME280;46439;51.164;13.572;2024-02-04T11:10:25;100194.82;;;11.00;100.00
60611;BME280;46439;51.164;13.572;2024-02-04T11:12:56;100203.30;;;11.01;100.00
60611;BME280;46439;51.164;13.572;2024-02-04T11:15:28;100199.11;;;11.01;100.00
60611;BME280;46439;51.164;13.572;2024-02-04T11:18:24;100192.21;;;11.04;100.00
60611;BME280;46439;51.164;13.572;2024-02-04T11:21:17;100183.32;;;11.04;100.00
60611;BME280;46439;51.164;13.572;2024-02-04T11:23:55;100181.84;;;11.03;100.00
60611;BME280;46439;51.164;13.572;2024-02-04T11:26:28;100182.20;;;11.12;100.00
60611;BME280;46439;51.164;13.572;2024-02-04T11:28:56;100177.45;;;11.16;100.00
60611;BME280;46439;51.164;13.572;2024-02-04T11:31:27;100177.61;;;11.13;100.00
60611;BME280;46439;51.164;13.572;2024-02-04T11:33:57;100178.30;;;11.08;100.00
60611;BME280;46439;51.164;13.572;2024-02-04T11:36:26;100178.45;;;11.06;100.00
60611;BME280;46439;51.164;13.572;2024-02-04T11:38:55;100177.02;;;10.96;100.00
60611;BME280;46439;51.164;13.572;2024-02-04T11:41:26;100173.98;;;10.99;100.00
60611;BME280;46439;51.164;13.572;2024-02-04T11:43:53;100172.82;;;10.97;100.00
60611;BME280;46439;51.164;13.572;2024-02-04T11:46:27;100178.98;;;10.91;100.00
60611;BME280;46439;51.164;13.572;2024-02-04T11:48:55;100183.42;;;10.89;100.00
60611;BME280;46439;51.164;13.572;2024-02-04T11:51:24;100180.95;;;10.85;100.00
60611;BME280;46439;51.164;13.572;2024-02-04T11:53:53;100181.80;;;10.84;100.00
60611;BME280;46439;51.164;13.572;2024-02-04T11:56:21;100188.39;;;10.82;100.00
60611;BME280;46439;51.164;13.572;2024-02-04T11:58:49;100187.14;;;10.82;100.00
60611;BME280;46439;51.164;13.572;2024-02-04T12:01:18;100186.20;;;10.77;100.00
60611;BME280;46439;51.164;13.572;2024-02-04T12:03:49;100184.61;;;10.80;100.00
60611;BME280;46439;51.164;13.572;2024-02-04T12:06:18;100184.16;;;10.81;100.00
60611;BME280;46439;51.164;13.572;2024-02-04T12:08:47;100177.45;;;10.81;100.00
60611;BME280;46439;51.164;13.572;2024-02-04T12:11:16;100170.66;;;10.81;100.00
60611;BME280;46439;51.164;13.572;2024-02-04T12:13:46;100163.21;;;10.78;100.00
60611;BME280;46439;51.164;13.572;2024-02-04T12:16:15;100158.39;;;10.71;100.00
60611;BME280;46439;51.164;13.572;2024-02-04T12:18:50;100155.65;;;10.72;100.00
60611;BME280;46439;51.164;13.572;2024-02-04T12:21:18;100159.66;;;10.71;100.00
60611;BME280;46439;51.164;13.572;2024-02-04T12:23:47;100152.59;;;10.80;100.00
60611;BME280;46439;51.164;13.572;2024-02-04T12:26:16;100148.73;;;10.85;100.00
60611;BME280;46439;51.164;13.572;2024-02-04T12:28:44;100145.98;;;10.89;100.00
60611;BME280;46439;51.164;13.572;2024-02-04T12:31:19;100144.38;;;10.91;100.00
60611;BME280;46439;51.164;13.572;2024-02-04T12:33:53;100144.04;;;10.98;100.00
60611;BME280;46439;51.164;13.572;2024-02-04T12:36:23;100139.09;;;10.99;100.00
60611;BME280;46439;51.164;13.572;2024-02-04T12:38:58;100137.77;;;11.01;100.00
60611;BME280;46439;51.164;13.572;2024-02-04T12:41:29;100143.86;;;11.01;100.00